Time;durP1;ratioP1;P1;durP2;ratioP2;P2;SDS_P1;SDS_P2;PMS_P1;PMS_P2;Temp;Humidity;BMP_temperature;BMP_pressure;BME280_temperature;BME280_humidity;BME280_pressure;Samples;Min_cycle;Max_cycle;Signal;HPM_P1;HPM_P2
2022/09/24 00:01:22;;;;;;;11.65;9.82;;;14.10;99.70;;;;;;5020790;28;20060;-50
2022/09/24 00:04:10;;;;;;;11.27;10.07;;;14.10;99.70;;;;;;5008359;28;20030;-51
2022/09/24 00:06:56;;;;;;;11.52;10.32;;;14.20;99.60;;;;;;5021579;28;20022;-51
2022/09/24 00:09:43;;;;;;;12.20;9.63;;;14.10;99.60;;;;;;5022725;28;20094;-53
2022/09/24 00:12:29;;;;;;;10.63;9.45;;;14.10;99.60;;;;;;5024062;28;20033;-49
2022/09/24 00:15:15;;;;;;;11.55;10.35;;;14.10;99.60;;;;;;5023749;28;20034;-50
2022/09/24 00:18:01;;;;;;;11.07;9.90;;;14.10;99.50;;;;;;5009529;28;20049;-51
2022/09/24 00:20:48;;;;;;;11.02;9.90;;;14.10;99.50;;;;;;5021184;28;20423;-54
2022/09/24 00:23:34;;;;;;;11.55;10.23;;;14.00;99.60;;;;;;5008275;28;20034;-52
2022/09/24 00:29:26;;;;;;;10.38;9.30;;;13.90;99.90;;;;;;5011779;28;20034;-53
2022/09/24 00:32:12;;;;;;;10.93;9.43;;;13.90;99.90;;;;;;5010663;28;20076;-51
2022/09/24 00:34:58;;;;;;;12.13;10.55;;;13.70;99.90;;;;;;5012332;28;20029;-49
2022/09/24 00:37:44;;;;;;;11.20;10.00;;;13.80;99.90;;;;;;5011471;28;20049;-49
2022/09/24 00:40:36;;;;;;;11.52;9.75;;;13.70;99.90;;;;;;5011401;28;20089;-53
2022/09/24 00:43:36;;;;;;;13.00;10.45;;;13.70;99.90;;;;;;5011644;28;20038;-50
2022/09/24 00:46:39;;;;;;;11.32;10.15;;;13.70;99.90;;;;;;5011448;28;20029;-53
2022/09/24 00:49:25;;;;;;;11.68;9.63;;;13.70;99.90;;;;;;4997439;28;20034;-52
2022/09/24 00:52:11;;;;;;;10.85;9.75;;;13.70;99.90;;;;;;4998081;28;20117;-51
2022/09/24 00:54:57;;;;;;;11.55;10.35;;;13.60;99.90;;;;;;5010969;28;20033;-48
2022/09/24 00:57:45;;;;;;;13.43;10.85;;;13.50;99.90;;;;;;5010943;28;20018;-51
2022/09/24 01:00:31;;;;;;;12.18;9.95;;;13.60;99.90;;;;;;5011034;28;20088;-49
2022/09/24 01:03:24;;;;;;;11.70;9.77;;;13.60;99.90;;;;;;5011014;28;20402;-49
2022/09/24 01:06:10;;;;;;;11.23;10.02;;;13.60;99.90;;;;;;5010997;28;20490;-50
2022/09/24 01:08:58;;;;;;;11.43;10.25;;;13.50;99.90;;;;;;5010980;28;20034;-49
2022/09/24 01:12:06;;;;;;;10.80;9.75;;;13.50;99.90;;;;;;5009867;28;20037;-50
2022/09/24 01:15:16;;;;;;;12.15;9.70;;;13.50;99.90;;;;;;5011656;28;20101;-55
2022/09/24 01:18:28;;;;;;;12.90;9.82;;;13.40;99.90;;;;;;5011473;28;20164;-54
2022/09/24 01:21:34;;;;;;;10.52;9.40;;;13.40;99.90;;;;;;5010042;28;20030;-51
2022/09/24 01:24:39;;;;;;;;;;;13.50;99.90;;;;;;5012197;28;20113;-50
2022/09/24 01:27:48;;;;;;;12.60;9.43;;;13.40;99.90;;;;;;5011186;28;19905;-50
2022/09/24 01:30:37;;;;;;;11.23;10.02;;;13.40;99.90;;;;;;5011176;28;20520;-49
2022/09/24 01:33:26;;;;;;;9.43;8.52;;;13.30;99.90;;;;;;4992157;28;20093;-54
2022/09/24 01:36:14;;;;;;;11.40;9.40;;;13.40;99.90;;;;;;5005066;28;20042;-51
2022/09/24 01:39:02;;;;;;;11.02;9.88;;;13.40;99.90;;;;;;5009639;28;20026;-55
2022/09/24 01:41:48;;;;;;;10.82;9.73;;;13.40;99.90;;;;;;5008988;28;20022;-50
2022/09/24 01:44:36;;;;;;;11.18;9.55;;;13.40;99.90;;;;;;5010813;28;20057;-51
2022/09/24 01:47:31;;;;;;;11.07;9.73;;;13.40;99.90;;;;;;5009762;28;20038;-52
2022/09/24 01:50:18;;;;;;;10.55;9.52;;;13.40;99.90;;;;;;4990865;28;20045;-49
2022/09/24 01:53:10;;;;;;;11.35;9.65;;;13.40;99.90;;;;;;4995632;28;20022;-50
2022/09/24 01:56:07;;;;;;;11.50;9.88;;;13.40;99.90;;;;;;5008729;28;20038;-54
2022/09/24 01:59:01;;;;;;;11.32;10.23;;;13.20;99.90;;;;;;5005996;28;20124;-51
2022/09/24 02:02:29;;;;;;;12.18;9.82;;;13.20;99.90;;;;;;5005691;28;20026;-52
2022/09/24 02:05:23;;;;;;;10.85;9.15;;;13.20;99.90;;;;;;5001592;28;20489;-51
2022/09/24 02:08:25;;;;;;;11.25;9.93;;;13.20;99.90;;;;;;5003995;28;20494;-48
2022/09/24 02:11:20;;;;;;;15.77;10.75;;;13.20;99.90;;;;;;5003581;28;20494;-51
2022/09/24 02:14:13;;;;;;;12.27;11.07;;;13.00;99.90;;;;;;4988826;28;20049;-51
2022/09/24 02:17:01;;;;;;;12.30;10.90;;;12.90;99.90;;;;;;5004933;28;20084;-55
2022/09/24 02:19:48;;;;;;;11.90;10.40;;;12.80;99.90;;;;;;4997900;28;20023;-49
2022/09/24 02:22:36;;;;;;;11.98;10.80;;;12.80;99.90;;;;;;4996669;28;20030;-55
2022/09/24 02:25:30;;;;;;;12.68;10.40;;;12.80;99.90;;;;;;5010268;28;20030;-52
2022/09/24 02:28:18;;;;;;;11.50;10.30;;;12.80;99.90;;;;;;5010198;28;20068;-53
2022/09/24 02:31:10;;;;;;;12.07;10.85;;;12.80;99.90;;;;;;5009980;28;20045;-55
2022/09/24 02:37:08;;;;;;;12.45;11.18;;;12.80;99.90;;;;;;5009738;28;20018;-51
2022/09/24 02:39:54;;;;;;;11.60;10.38;;;12.80;99.90;;;;;;5009366;28;20029;-52
2022/09/24 02:42:42;;;;;;;12.10;10.65;;;12.80;99.90;;;;;;5008586;28;20026;-52
2022/09/24 02:45:28;;;;;;;12.05;10.95;;;12.80;99.90;;;;;;5010166;28;20175;-51
2022/09/24 02:48:13;;;;;;;12.75;11.55;;;12.50;99.90;;;;;;5009457;28;20383;-55
2022/09/24 02:51:00;;;;;;;13.18;11.77;;;12.40;99.90;;;;;;5009882;28;20513;-51
2022/09/24 02:53:46;;;;;;;13.30;11.80;;;12.30;99.90;;;;;;4990524;28;20089;-51
2022/09/24 02:56:32;;;;;;;12.27;11.07;;;12.30;99.90;;;;;;4994030;28;20026;-51
2022/09/24 02:59:18;;;;;;;12.95;11.40;;;12.40;99.90;;;;;;5010456;28;20490;-50
2022/09/24 03:02:04;;;;;;;13.20;11.82;;;12.50;99.90;;;;;;4995837;28;20034;-51
2022/09/24 03:04:50;;;;;;;12.18;10.88;;;12.60;99.90;;;;;;5009643;28;20132;-51
2022/09/24 03:07:36;;;;;;;11.68;10.48;;;12.50;99.90;;;;;;5009993;28;20048;-51
2022/09/24 03:10:23;;;;;;;12.30;11.02;;;12.50;99.90;;;;;;4997959;28;20045;-51
2022/09/24 03:13:10;;;;;;;12.23;11.02;;;12.50;99.90;;;;;;5012759;28;20490;-52
2022/09/24 03:15:56;;;;;;;12.32;10.70;;;12.50;99.90;;;;;;5013079;28;20072;-53
2022/09/24 03:18:42;;;;;;;12.50;11.20;;;12.50;99.90;;;;;;5013088;28;20022;-54
2022/09/24 03:21:28;;;;;;;12.02;10.77;;;12.50;99.90;;;;;;5012046;28;20030;-50
2022/09/24 03:24:14;;;;;;;11.70;10.60;;;12.60;99.90;;;;;;5014054;28;20018;-55
2022/09/24 03:27:00;;;;;;;11.98;10.65;;;12.60;99.90;;;;;;5014827;28;20167;-51
2022/09/24 03:32:51;;;;;;;12.05;10.85;;;12.60;99.90;;;;;;5012779;28;20030;-51
2022/09/24 03:35:36;;;;;;;16.50;11.57;;;12.60;99.90;;;;;;5012754;28;20022;-49
2022/09/24 03:38:23;;;;;;;12.02;10.70;;;12.60;99.90;;;;;;5011810;28;20030;-51
2022/09/24 03:41:11;;;;;;;13.05;11.02;;;12.60;99.90;;;;;;5011662;28;20053;-52
2022/09/24 03:43:57;;;;;;;12.27;10.90;;;12.60;99.90;;;;;;5012619;28;20057;-54
2022/09/24 03:46:43;;;;;;;12.80;10.88;;;12.60;99.90;;;;;;5012917;28;20067;-53
2022/09/24 03:49:29;;;;;;;11.07;10.07;;;12.60;99.90;;;;;;5012441;28;20026;-55
2022/09/24 03:52:14;;;;;;;11.30;10.20;;;12.60;99.90;;;;;;5011533;28;20034;-54
2022/09/24 03:55:00;;;;;;;12.15;10.80;;;12.60;99.90;;;;;;5012680;28;20030;-53
2022/09/24 03:57:46;;;;;;;12.38;11.07;;;12.60;99.90;;;;;;5012564;28;20030;-55
2022/09/24 04:00:32;;;;;;;11.70;10.60;;;12.50;99.90;;;;;;5011945;28;20026;-51
2022/09/24 04:03:20;;;;;;;13.00;11.50;;;12.50;99.90;;;;;;4998066;28;20120;-52
2022/09/24 04:06:06;;;;;;;12.52;11.30;;;12.40;99.90;;;;;;5011645;28;20037;-55
2022/09/24 04:08:53;;;;;;;14.65;10.77;;;12.40;99.90;;;;;;5009859;28;20434;-55
2022/09/24 04:11:39;;;;;;;12.43;11.23;;;12.30;99.90;;;;;;5011631;28;20026;-53
2022/09/24 04:14:24;;;;;;;12.38;11.15;;;12.30;99.90;;;;;;4998064;28;20033;-53
2022/09/24 04:17:10;;;;;;;11.77;10.68;;;12.30;99.90;;;;;;5012294;28;20030;-50
2022/09/24 04:19:57;;;;;;;12.77;10.20;;;12.30;99.90;;;;;;5013086;28;20026;-55
2022/09/24 04:22:43;;;;;;;11.77;10.57;;;12.30;99.90;;;;;;4992562;28;20040;-48
2022/09/24 04:25:30;;;;;;;13.18;10.55;;;12.20;99.90;;;;;;5005142;28;20030;-54
2022/09/24 04:28:16;;;;;;;12.15;10.90;;;12.10;99.90;;;;;;5012400;28;20101;-49
2022/09/24 04:31:02;;;;;;;11.93;10.73;;;12.10;99.90;;;;;;5010974;28;20125;-53
2022/09/24 04:33:48;;;;;;;12.48;11.18;;;12.10;99.90;;;;;;5012089;28;20030;-54
2022/09/24 04:36:34;;;;;;;12.20;10.65;;;12.00;99.90;;;;;;4992316;28;20041;-53
2022/09/24 04:39:25;;;;;;;12.15;10.95;;;12.00;99.90;;;;;;4993784;28;20026;-52
2022/09/24 04:42:17;;;;;;;12.32;10.90;;;12.00;99.90;;;;;;5010078;28;20113;-55
2022/09/24 04:45:05;;;;;;;11.32;10.27;;;11.90;99.90;;;;;;5009771;28;20018;-54
2022/09/24 04:47:52;;;;;;;12.23;10.93;;;11.90;99.90;;;;;;5011642;28;20406;-57
2022/09/24 04:50:38;;;;;;;12.13;10.32;;;11.90;99.90;;;;;;4985282;28;20030;-55
2022/09/24 04:53:24;;;;;;;11.48;10.25;;;11.80;99.90;;;;;;4993013;28;20509;-52
2022/09/24 04:56:10;;;;;;;11.82;10.63;;;11.90;99.90;;;;;;5011318;28;20061;-53
2022/09/24 04:58:57;;;;;;;14.45;11.63;;;11.90;99.90;;;;;;5012018;28;20029;-54
2022/09/24 05:01:43;;;;;;;11.38;10.27;;;12.00;99.90;;;;;;4997130;28;20033;-53
2022/09/24 05:04:29;;;;;;;13.43;10.90;;;12.00;99.90;;;;;;4996596;28;20072;-54
2022/09/24 05:07:15;;;;;;;22.25;11.80;;;12.00;99.90;;;;;;5011234;28;20087;-52
2022/09/24 05:10:05;;;;;;;17.08;11.77;;;12.00;99.90;;;;;;5011197;28;20033;-56
2022/09/24 05:12:51;;;;;;;13.23;10.50;;;12.10;99.90;;;;;;5010523;28;20034;-53
2022/09/24 05:15:37;;;;;;;11.35;10.18;;;12.10;99.90;;;;;;5010959;28;20072;-55
2022/09/24 05:18:23;;;;;;;12.65;11.30;;;12.10;99.90;;;;;;5009567;28;20038;-55
2022/09/24 05:21:12;;;;;;;15.50;13.65;;;12.00;99.90;;;;;;4995711;28;20022;-53
2022/09/24 05:23:58;;;;;;;17.73;14.10;;;11.90;99.90;;;;;;5010647;28;20430;-53
2022/09/24 05:29:49;;;;;;;13.63;11.18;;;11.90;99.90;;;;;;5011193;28;20034;-53
2022/09/24 05:32:35;;;;;;;11.75;10.57;;;11.80;99.90;;;;;;5009815;28;20033;-49
2022/09/24 05:35:22;;;;;;;12.25;11.05;;;11.80;99.90;;;;;;4997167;28;20096;-54
2022/09/24 05:38:08;;;;;;;12.02;10.82;;;11.90;99.90;;;;;;4991754;28;20402;-55
2022/09/24 05:40:54;;;;;;;12.55;11.35;;;11.90;99.90;;;;;;5010837;28;20394;-51
2022/09/24 05:43:40;;;;;;;19.92;14.07;;;11.90;99.90;;;;;;5011503;28;20030;-55
2022/09/24 05:46:26;;;;;;;15.73;11.05;;;11.80;99.90;;;;;;4996776;28;20026;-52
2022/09/24 05:49:12;;;;;;;14.45;11.30;;;11.90;99.90;;;;;;5010972;28;20049;-54
2022/09/24 05:51:58;;;;;;;11.52;10.32;;;11.90;99.90;;;;;;5009173;28;20112;-51
2022/09/24 05:54:44;;;;;;;12.27;10.98;;;12.00;99.90;;;;;;5010561;28;20038;-51
2022/09/24 05:57:30;;;;;;;12.32;11.23;;;12.10;99.90;;;;;;5010314;28;20057;-52
2022/09/24 06:00:16;;;;;;;13.40;11.30;;;12.10;99.90;;;;;;5010534;28;20088;-54
2022/09/24 06:03:10;;;;;;;11.43;10.20;;;12.20;99.90;;;;;;5019555;28;20032;-53
2022/09/24 06:06:00;;;;;;;11.68;10.23;;;12.20;99.90;;;;;;5024190;28;20097;-53
2022/09/24 06:08:46;;;;;;;12.45;11.25;;;12.20;99.90;;;;;;5005785;28;20033;-52
2022/09/24 06:11:35;;;;;;;12.50;11.30;;;12.30;99.90;;;;;;5025349;28;20065;-49
2022/09/24 06:14:21;;;;;;;13.25;11.52;;;12.30;99.90;;;;;;5016549;28;20547;-58
2022/09/24 06:17:08;;;;;;;12.65;10.07;;;12.30;99.90;;;;;;5010295;28;20034;-53
2022/09/24 06:19:56;;;;;;;11.25;10.15;;;12.40;99.90;;;;;;5009054;28;20042;-54
2022/09/24 06:22:42;;;;;;;12.10;10.25;;;12.40;99.90;;;;;;5005432;28;20034;-53
2022/09/24 06:25:29;;;;;;;11.35;10.18;;;12.40;99.90;;;;;;4990495;28;20042;-54
2022/09/24 06:28:15;;;;;;;10.13;9.13;;;12.50;99.90;;;;;;5001776;28;20026;-55
2022/09/24 06:31:02;;;;;;;19.95;16.98;;;12.60;99.90;;;;;;5008347;28;20029;-52
2022/09/24 06:33:48;;;;;;;13.90;12.27;;;12.70;99.90;;;;;;4995924;28;20030;-54
2022/09/24 06:36:34;;;;;;;14.68;10.88;;;12.70;99.90;;;;;;5011152;28;20113;-53
2022/09/24 06:39:22;;;;;;;11.18;9.90;;;12.80;99.90;;;;;;5010945;28;20027;-52
2022/09/24 06:42:08;;;;;;;13.40;11.13;;;12.80;99.90;;;;;;5011627;28;20079;-53
2022/09/24 06:44:54;;;;;;;14.35;11.90;;;12.90;99.90;;;;;;5012538;28;20038;-53
2022/09/24 06:47:39;;;;;;;15.80;11.57;;;13.00;99.90;;;;;;5013962;28;20026;-56
2022/09/24 06:50:28;;;;;;;13.75;10.98;;;13.10;99.90;;;;;;5013428;28;20030;-53
2022/09/24 06:53:14;;;;;;;13.00;11.10;;;13.20;99.90;;;;;;5013769;28;20083;-52
2022/09/24 06:56:13;;;;;;;12.00;10.68;;;13.30;99.90;;;;;;5014196;28;20465;-54
2022/09/24 06:58:59;;;;;;;11.95;10.65;;;13.30;99.90;;;;;;5006492;28;20068;-53
2022/09/24 07:01:46;;;;;;;10.90;9.50;;;13.40;99.90;;;;;;5010369;28;20046;-53
2022/09/24 07:04:32;;;;;;;9.77;8.77;;;13.40;99.90;;;;;;5012688;28;20034;-54
2022/09/24 07:07:33;;;;;;;13.43;8.80;;;13.50;99.70;;;;;;5013375;28;20113;-55
2022/09/24 07:10:20;;;;;;;11.80;10.52;;;13.60;99.70;;;;;;4993976;28;20034;-53
2022/09/24 07:13:06;;;;;;;14.43;10.35;;;13.60;99.30;;;;;;4982605;28;20026;-56
2022/09/24 07:15:52;;;;;;;14.02;9.60;;;13.60;98.60;;;;;;5013681;28;20057;-54
2022/09/24 07:18:38;;;;;;;12.93;9.88;;;13.60;98.30;;;;;;5015285;28;20437;-54
2022/09/24 07:21:23;;;;;;;11.80;8.80;;;13.60;98.20;;;;;;5012933;28;20026;-56
2022/09/24 07:24:09;;;;;;;12.68;8.63;;;13.60;98.10;;;;;;5014338;28;20030;-54
2022/09/24 07:26:55;;;;;;;9.65;8.73;;;13.60;98.20;;;;;;4999832;28;20034;-55
2022/09/24 07:29:41;;;;;;;14.65;9.38;;;13.60;98.10;;;;;;5008102;28;20030;-53
2022/09/24 07:32:28;;;;;;;12.90;8.93;;;13.50;98.40;;;;;;5013088;28;20046;-52
2022/09/24 07:35:14;;;;;;;8.75;7.82;;;13.50;98.70;;;;;;5008594;28;20046;-53
2022/09/24 07:38:10;;;;;;;11.27;8.52;;;13.60;98.70;;;;;;5014023;28;20490;-52
2022/09/24 07:40:57;;;;;;;10.32;8.10;;;13.60;98.70;;;;;;5002097;28;20030;-52
2022/09/24 07:43:43;;;;;;;9.32;8.18;;;13.70;98.70;;;;;;5014583;28;20056;-56
2022/09/24 07:46:29;;;;;;;10.13;8.63;;;13.80;98.70;;;;;;4996675;28;20038;-52
2022/09/24 07:49:16;;;;;;;9.18;8.38;;;13.90;98.60;;;;;;5007366;28;20113;-55
2022/09/24 07:52:02;;;;;;;24.05;17.13;;;13.90;98.20;;;;;;5011792;28;20034;-53
2022/09/24 07:54:48;;;;;;;28.58;25.65;;;14.00;98.30;;;;;;5012457;28;20511;-51
2022/09/24 07:57:34;;;;;;;13.55;11.65;;;13.90;98.30;;;;;;4992560;28;20080;-52
2022/09/24 08:00:22;;;;;;;14.65;10.68;;;14.00;98.70;;;;;;5009771;28;20422;-55
2022/09/24 08:03:08;;;;;;;12.55;10.35;;;14.00;98.40;;;;;;5012183;28;20096;-51
2022/09/24 08:05:57;;;;;;;13.18;8.98;;;14.20;98.50;;;;;;4992922;28;20117;-52
2022/09/24 08:08:43;;;;;;;11.50;8.90;;;14.20;98.00;;;;;;5010820;28;20034;-52
2022/09/24 08:11:29;;;;;;;17.27;14.60;;;14.20;97.70;;;;;;5013325;28;20466;-51
2022/09/24 08:14:15;;;;;;;17.38;13.50;;;14.20;97.60;;;;;;5011740;28;20050;-52
2022/09/24 08:17:01;;;;;;;11.40;8.60;;;14.30;97.70;;;;;;4994739;28;20030;-56
2022/09/24 08:19:47;;;;;;;10.18;8.48;;;14.30;97.80;;;;;;4998418;28;20563;-50
2022/09/24 08:22:36;;;;;;;8.68;7.78;;;14.40;97.30;;;;;;4987596;28;20034;-54
2022/09/24 08:25:22;;;;;;;9.23;8.23;;;14.40;96.60;;;;;;5008990;28;20034;-50
2022/09/24 08:28:11;;;;;;;9.15;8.25;;;14.40;96.50;;;;;;5011375;28;20022;-51
2022/09/24 08:31:02;;;;;;;9.60;8.48;;;14.30;96.80;;;;;;5005835;28;20028;-51
2022/09/24 08:33:54;;;;;;;11.93;8.50;;;14.30;96.90;;;;;;5010517;28;20041;-55
2022/09/24 08:36:39;;;;;;;11.18;8.20;;;14.50;96.90;;;;;;5005700;28;20029;-53
2022/09/24 08:39:26;;;;;;;12.68;8.95;;;14.60;96.80;;;;;;5001503;28;20034;-52
2022/09/24 08:42:34;;;;;;;10.98;8.20;;;14.70;96.90;;;;;;5003456;28;20030;-51
2022/09/24 08:48:30;;;;;;;10.68;8.85;;;14.70;96.90;;;;;;5004832;28;20042;-57
2022/09/24 08:51:19;;;;;;;9.00;8.10;;;14.80;96.80;;;;;;5012607;28;20083;-51
2022/09/24 08:54:09;;;;;;;7.70;6.90;;;14.80;96.70;;;;;;5011027;28;20113;-55
2022/09/24 08:56:57;;;;;;;8.27;7.13;;;14.80;96.60;;;;;;5012319;28;20026;-51
2022/09/24 08:59:49;;;;;;;8.45;7.55;;;14.80;96.30;;;;;;5011228;28;20510;-49
2022/09/24 09:02:57;;;;;;;8.43;7.57;;;14.60;96.50;;;;;;5009766;28;20060;-52
2022/09/24 09:06:00;;;;;;;7.90;7.00;;;14.70;97.00;;;;;;4995403;28;20478;-52
2022/09/24 09:08:50;;;;;;;8.90;7.10;;;14.90;97.30;;;;;;5008588;28;20454;-50
2022/09/24 09:11:39;;;;;;;10.73;8.25;;;15.30;96.90;;;;;;5012300;28;20037;-49
2022/09/24 09:14:54;;;;;;;14.60;7.72;;;15.60;96.30;;;;;;5008356;28;20033;-52
2022/09/24 09:17:56;;;;;;;9.40;7.10;;;15.60;95.70;;;;;;5013742;28;20029;-51
2022/09/24 09:20:48;;;;;;;8.02;7.13;;;15.60;95.50;;;;;;4980855;28;20410;-51
2022/09/24 09:23:43;;;;;;;9.02;7.50;;;15.70;95.40;;;;;;4999178;28;20081;-54
2022/09/24 09:26:30;;;;;;;7.93;6.95;;;15.80;95.30;;;;;;5016690;28;20505;-52
2022/09/24 09:29:16;;;;;;;13.27;7.63;;;15.80;95.00;;;;;;4995873;28;20049;-53
2022/09/24 09:32:33;;;;;;;7.88;7.18;;;15.80;95.10;;;;;;5013546;28;20046;-55
2022/09/24 09:35:32;;;;;;;7.90;7.10;;;15.80;94.90;;;;;;5016453;28;20580;-49
2022/09/24 09:38:27;;;;;;;7.55;6.80;;;15.80;95.10;;;;;;5015286;28;20024;-55
2022/09/24 09:41:16;;;;;;;;;;;15.90;95.60;;;;;;5013409;28;20033;-48
2022/09/24 09:44:19;;;;;;;7.88;7.07;;;16.00;95.50;;;;;;5003348;28;20266;-52
2022/09/24 09:47:33;;;;;;;7.78;7.07;;;16.10;95.40;;;;;;5010745;28;20570;-52
2022/09/24 09:50:27;;;;;;;9.38;7.90;;;16.40;94.60;;;;;;5012342;28;20124;-52
2022/09/24 09:53:30;;;;;;;8.02;7.22;;;16.50;94.50;;;;;;5016944;28;20631;-55
2022/09/24 09:56:42;;;;;;;7.35;6.65;;;16.70;94.40;;;;;;5005673;28;20029;-54
2022/09/24 09:59:30;;;;;;;9.02;7.40;;;16.50;94.50;;;;;;5016992;28;20022;-55
2022/09/24 10:02:23;;;;;;;15.23;7.65;;;16.60;94.40;;;;;;5006134;28;20026;-52
2022/09/24 10:05:21;;;;;;;9.10;6.60;;;16.80;94.80;;;;;;5015265;28;20022;-52
2022/09/24 10:08:20;;;;;;;9.23;6.38;;;17.10;93.70;;;;;;5013709;28;20125;-53
2022/09/24 10:11:15;;;;;;;7.93;7.13;;;17.20;93.50;;;;;;5008392;28;20108;-55
2022/09/24 10:14:03;;;;;;;7.88;7.07;;;17.20;93.50;;;;;;5011400;28;20037;-56
2022/09/24 10:16:53;;;;;;;7.63;6.82;;;17.10;93.70;;;;;;5007044;28;20079;-51
2022/09/24 10:19:44;;;;;;;10.43;7.47;;;17.10;93.70;;;;;;5017338;28;20471;-51
2022/09/24 10:22:31;;;;;;;8.13;7.32;;;17.30;93.60;;;;;;5014850;28;20022;-56
2022/09/24 10:25:23;;;;;;;7.82;7.00;;;17.50;93.30;;;;;;5017158;28;20398;-55
2022/09/24 10:31:25;;;;;;;8.27;6.70;;;17.90;93.00;;;;;;5010169;28;20092;-56
2022/09/24 10:34:25;;;;;;;8.10;7.22;;;17.90;92.90;;;;;;5014700;28;20413;-55
2022/09/24 10:37:17;;;;;;;9.98;6.75;;;18.00;92.50;;;;;;5017166;28;20034;-55
2022/09/24 10:40:12;;;;;;;7.25;6.53;;;17.90;92.40;;;;;;5006255;28;20034;-58
2022/09/24 10:43:03;;;;;;;7.43;6.70;;;18.00;92.30;;;;;;5013385;28;20026;-52
2022/09/24 10:46:01;;;;;;;7.82;7.13;;;17.90;92.50;;;;;;5008202;28;20056;-56
2022/09/24 10:49:13;;;;;;;7.97;7.18;;;17.80;92.50;;;;;;5007995;28;20092;-53
2022/09/24 10:52:08;;;;;;;8.50;6.60;;;17.70;92.20;;;;;;5011929;28;20018;-56
2022/09/24 10:55:13;;;;;;;6.45;5.85;;;17.70;92.80;;;;;;5012211;28;20044;-60
2022/09/24 10:58:11;;;;;;;8.27;6.13;;;17.90;93.10;;;;;;5011072;28;20014;-57
2022/09/24 11:01:18;;;;;;;7.07;5.93;;;18.10;92.30;;;;;;5013836;28;20252;-57
2022/09/24 11:04:46;;;;;;;6.30;5.70;;;18.10;92.30;;;;;;5013099;28;20022;-55
2022/09/24 11:07:41;;;;;;;9.00;6.53;;;18.30;92.50;;;;;;5013850;28;20049;-58
2022/09/24 11:10:38;;;;;;;9.80;7.13;;;18.60;91.50;;;;;;5016633;28;20029;-53
2022/09/24 11:13:39;;;;;;;7.75;6.50;;;18.50;90.70;;;;;;5015275;28;20061;-56
2022/09/24 11:16:31;;;;;;;7.00;6.30;;;18.70;90.80;;;;;;5015581;28;20014;-55
2022/09/24 11:19:35;;;;;;;7.85;7.10;;;18.80;91.10;;;;;;5016862;28;20169;-58
2022/09/24 11:22:36;;;;;;;6.32;5.72;;;18.90;91.70;;;;;;5016243;28;20030;-55
2022/09/24 11:25:31;;;;;;;7.85;6.60;;;19.20;91.60;;;;;;5015118;28;20018;-54
2022/09/24 11:28:58;;;;;;;9.32;6.93;;;19.40;91.00;;;;;;5016053;28;20109;-56
2022/09/24 11:32:25;;;;;;;8.40;6.47;;;19.60;90.90;;;;;;4989407;28;20053;-53
2022/09/24 11:35:28;;;;;;;7.90;7.10;;;19.80;90.70;;;;;;4957803;28;20398;-51
2022/09/24 11:38:26;;;;;;;7.63;5.68;;;19.80;89.50;;;;;;5012447;28;20026;-56
2022/09/24 11:41:31;;;;;;;6.55;5.38;;;19.80;89.60;;;;;;5012555;28;20042;-58
2022/09/24 11:44:17;;;;;;;6.47;5.72;;;19.90;89.40;;;;;;5012558;28;20453;-56
2022/09/24 11:47:24;;;;;;;6.03;5.43;;;20.10;88.60;;;;;;5016223;28;20061;-55
2022/09/24 11:50:18;;;;;;;11.52;6.10;;;20.20;87.90;;;;;;5008608;28;20707;-52
2022/09/24 11:53:24;;;;;;;7.18;5.63;;;20.20;84.90;;;;;;5005991;28;20493;-53
2022/09/24 11:56:24;;;;;;;12.02;7.95;;;20.00;85.50;;;;;;5018643;28;20119;-54
2022/09/24 11:59:49;;;;;;;7.75;6.47;;;20.10;85.10;;;;;;5021648;28;20026;-50
2022/09/24 12:02:40;;;;;;;6.47;5.63;;;20.20;84.60;;;;;;4993199;28;20018;-67
2022/09/24 12:05:53;;;;;;;8.15;6.55;;;20.10;83.90;;;;;;4999839;28;20054;-58
2022/09/24 12:08:46;;;;;;;7.47;6.57;;;20.20;84.60;;;;;;5011627;28;20502;-57
2022/09/24 12:11:40;;;;;;;7.38;6.00;;;20.30;83.80;;;;;;5011345;28;20029;-57
2022/09/24 12:14:30;;;;;;;8.60;7.70;;;20.40;83.00;;;;;;5012466;28;20443;-57
2022/09/24 12:17:37;;;;;;;8.70;7.50;;;20.20;82.90;;;;;;5012743;28;20401;-56
2022/09/24 12:20:28;;;;;;;8.50;7.60;;;20.30;82.80;;;;;;5012838;28;20502;-58
2022/09/24 12:23:18;;;;;;;7.90;6.72;;;20.30;83.00;;;;;;4999476;28;20046;-54
2022/09/24 12:26:06;;;;;;;7.75;6.30;;;20.40;82.50;;;;;;5012815;28;20081;-56
2022/09/24 12:34:54;;;;;;;9.07;5.90;;;20.20;82.30;;;;;;5581520;22;20265;-58
2022/09/24 12:37:43;;;;;;;10.23;6.47;;;20.20;83.20;;;;;;5007819;28;20036;-57
2022/09/24 12:40:48;;;;;;;8.73;7.68;;;20.40;82.40;;;;;;5002723;28;20922;-53
2022/09/24 12:43:49;;;;;;;8.65;7.55;;;20.70;81.70;;;;;;5006186;28;20375;-57
2022/09/24 12:46:49;;;;;;;10.52;8.02;;;20.70;81.30;;;;;;5000217;28;20030;-52
2022/09/24 12:49:36;;;;;;;8.38;7.00;;;20.90;80.40;;;;;;5001449;28;20074;-55
2022/09/24 12:52:39;;;;;;;8.30;7.50;;;20.90;80.30;;;;;;4985402;28;20077;-56
2022/09/24 12:55:26;;;;;;;9.60;7.28;;;21.20;79.20;;;;;;5000559;28;20049;-56
2022/09/24 12:58:42;;;;;;;9.10;7.70;;;21.20;78.90;;;;;;4993593;28;20409;-54
2022/09/24 13:01:29;;;;;;;;;;;21.00;79.30;;;;;;4991818;28;20029;-57
2022/09/24 13:04:15;;;;;;;9.20;7.32;;;20.80;79.30;;;;;;4990797;28;19913;-57
2022/09/24 13:07:01;;;;;;;8.05;7.07;;;21.10;79.40;;;;;;4982155;28;20030;-57
2022/09/24 13:09:47;;;;;;;6.93;6.15;;;21.40;79.60;;;;;;4992702;28;20118;-56
2022/09/24 13:12:33;;;;;;;9.05;7.55;;;21.80;77.80;;;;;;4973964;28;20114;-56
2022/09/24 13:15:32;;;;;;;9.20;7.47;;;21.80;76.80;;;;;;4985731;28;20045;-57
2022/09/24 13:18:23;;;;;;;8.65;7.22;;;22.20;75.90;;;;;;4979930;28;20031;-58
2022/09/24 13:21:23;;;;;;;9.07;7.45;;;21.90;76.60;;;;;;4987814;28;20026;-57
2022/09/24 13:24:10;;;;;;;11.45;7.65;;;21.50;76.30;;;;;;4991152;28;20210;-57
2022/09/24 13:27:20;;;;;;;8.48;7.55;;;21.20;77.20;;;;;;4991575;28;20131;-56
2022/09/24 13:30:25;;;;;;;8.82;7.53;;;21.20;77.30;;;;;;5680179;22;20042;-57
2022/09/24 13:33:29;;;;;;;9.35;7.95;;;21.30;77.10;;;;;;5029307;28;20048;-58
2022/09/24 13:36:32;;;;;;;8.00;7.13;;;21.50;76.20;;;;;;5031359;28;20033;-54
2022/09/24 13:39:35;;;;;;;12.82;7.68;;;21.60;76.20;;;;;;5028785;28;20334;-60
2022/09/24 13:42:27;;;;;;;9.13;7.20;;;21.80;76.70;;;;;;5004069;28;20026;-58
2022/09/24 13:45:19;;;;;;;8.40;6.40;;;22.00;75.80;;;;;;4997804;28;20401;-57
2022/09/24 13:48:17;;;;;;;10.90;7.78;;;22.10;74.80;;;;;;5004526;28;20103;-58
2022/09/24 13:51:05;;;;;;;13.85;7.03;;;21.90;74.20;;;;;;4997226;28;20019;-57
2022/09/24 13:54:03;;;;;;;7.25;6.55;;;22.00;74.40;;;;;;4996333;28;20037;-57
2022/09/24 13:57:08;;;;;;;14.15;10.02;;;21.80;74.60;;;;;;5009205;28;20084;-56
2022/09/24 14:00:26;;;;;;;8.55;7.25;;;21.60;75.30;;;;;;4992186;28;20088;-55
2022/09/24 14:03:25;;;;;;;8.43;7.03;;;21.20;75.50;;;;;;4994772;28;20465;-57
2022/09/24 14:06:14;;;;;;;7.50;6.45;;;21.00;75.60;;;;;;5011724;28;20088;-57
2022/09/24 14:09:00;;;;;;;8.10;7.25;;;20.80;76.00;;;;;;5010686;28;20131;-59
2022/09/24 14:11:51;;;;;;;7.18;5.47;;;20.60;76.20;;;;;;4997201;28;20112;-56
2022/09/24 14:14:44;;;;;;;6.68;5.97;;;20.50;76.70;;;;;;5009622;28;20038;-58
2022/09/24 14:17:30;;;;;;;7.20;5.88;;;20.40;77.20;;;;;;4994669;28;20026;-55
2022/09/24 14:20:16;;;;;;;10.45;8.38;;;20.40;77.80;;;;;;5006334;28;20085;-58
2022/09/24 14:23:04;;;;;;;9.77;8.77;;;20.50;77.30;;;;;;5011037;28;20034;-58
2022/09/24 14:25:51;;;;;;;12.70;10.05;;;20.50;77.60;;;;;;5007109;28;20108;-60
2022/09/24 14:28:38;;;;;;;16.42;12.95;;;20.70;77.60;;;;;;4993104;28;20030;-57
2022/09/24 14:31:24;;;;;;;12.20;9.45;;;20.70;76.80;;;;;;5002425;28;20054;-57
2022/09/24 14:34:37;;;;;;;9.25;7.47;;;20.90;76.80;;;;;;5007908;28;20033;-56
2022/09/24 14:37:31;;;;;;;9.90;7.35;;;21.00;75.60;;;;;;4994336;28;20041;-57
2022/09/24 14:40:24;;;;;;;9.55;8.05;;;21.00;75.60;;;;;;5007200;28;20116;-57
2022/09/24 14:43:44;;;;;;;10.90;7.50;;;21.00;76.40;;;;;;4993549;28;20034;-56
2022/09/24 14:46:47;;;;;;;8.15;6.45;;;21.00;75.30;;;;;;5006441;28;20144;-58
2022/09/24 14:49:43;;;;;;;14.70;11.10;;;21.00;74.90;;;;;;5006258;28;20088;-55
2022/09/24 14:52:36;;;;;;;18.45;14.63;;;20.80;75.50;;;;;;5008767;28;20065;-62
2022/09/24 14:55:38;;;;;;;10.07;7.00;;;20.80;77.10;;;;;;4993360;28;20087;-61
2022/09/24 14:58:27;;;;;;;6.75;5.93;;;20.80;75.90;;;;;;4988802;28;20435;-55
2022/09/24 15:01:19;;;;;;;8.73;7.47;;;20.70;74.80;;;;;;5001320;28;20054;-57
2022/09/24 15:04:16;;;;;;;8.20;6.28;;;20.60;74.80;;;;;;5000311;28;20041;-55
2022/09/24 15:07:02;;;;;;;6.80;5.53;;;20.60;74.50;;;;;;5012884;28;20018;-57
2022/09/24 15:09:50;;;;;;;7.10;5.93;;;20.50;75.20;;;;;;5005626;28;20509;-59